Wild Rose, Wisconsin
Current Conditions -  °F | °C
As of 6:19 AM on Sunday 23 Nov 2014 (Local Time) from KY50 Reporting Station
Haze Haze  
Wind Chill: 45°   Ceiling: 300
Heat Index: 48°   Visibility: 1.7mi
Dew Point: 48°   Wind: 8mph
Humidity: 100%   Direction: 170°S
Pressure: 29.62"   Gusts: NA
Location:  44.18°N, 89.25°W
Report Text: KY50 231219Z AUTO 17007KT 1 3/4SM BR OVC003 09/09 A2962 RMK AO2 TSNO
Loading
Personal Weather Stations






























Interactive Weather Map New forecast layout! Learn more

10-Day Weather Forecast

Advertisements
Track Severe Weather on mobile